sensor_id;sensor_type;location;lat;lon;timestamp;P1;durP1;ratioP1;P2;durP2;ratioP2
70078;SDS011;57451;52.496;13.456;2023-09-19T00:00:51;5.50;;;2.10;;
70078;SDS011;57451;52.496;13.456;2023-09-19T00:03:24;4.90;;;2.10;;
70078;SDS011;57451;52.496;13.456;2023-09-19T00:05:52;5.35;;;1.92;;
70078;SDS011;57451;52.496;13.456;2023-09-19T00:08:20;5.68;;;2.20;;
70078;SDS011;57451;52.496;13.456;2023-09-19T00:10:51;7.25;;;2.17;;
70078;SDS011;57451;52.496;13.456;2023-09-19T00:13:18;6.38;;;2.05;;
70078;SDS011;57451;52.496;13.456;2023-09-19T00:15:46;6.80;;;2.20;;
70078;SDS011;57451;52.496;13.456;2023-09-19T00:18:18;7.63;;;2.00;;
70078;SDS011;57451;52.496;13.456;2023-09-19T00:20:50;5.72;;;1.80;;
70078;SDS011;57451;52.496;13.456;2023-09-19T00:23:19;4.63;;;2.03;;
70078;SDS011;57451;52.496;13.456;2023-09-19T00:25:47;4.53;;;2.20;;
70078;SDS011;57451;52.496;13.456;2023-09-19T00:28:15;5.70;;;1.80;;
70078;SDS011;57451;52.496;13.456;2023-09-19T00:30:43;5.15;;;2.13;;
70078;SDS011;57451;52.496;13.456;2023-09-19T00:33:11;5.97;;;2.00;;
70078;SDS011;57451;52.496;13.456;2023-09-19T00:35:46;5.45;;;1.80;;
70078;SDS011;57451;52.496;13.456;2023-09-19T00:38:15;5.18;;;1.90;;
70078;SDS011;57451;52.496;13.456;2023-09-19T00:40:44;6.80;;;1.90;;
70078;SDS011;57451;52.496;13.456;2023-09-19T00:43:12;5.97;;;2.00;;
70078;SDS011;57451;52.496;13.456;2023-09-19T00:45:42;5.32;;;2.10;;
70078;SDS011;57451;52.496;13.456;2023-09-19T00:48:10;5.57;;;1.95;;
70078;SDS011;57451;52.496;13.456;2023-09-19T00:50:38;6.40;;;1.95;;
70078;SDS011;57451;52.496;13.456;2023-09-19T00:53:09;7.73;;;2.00;;
70078;SDS011;57451;52.496;13.456;2023-09-19T00:55:41;6.30;;;2.10;;
70078;SDS011;57451;52.496;13.456;2023-09-19T00:58:09;5.68;;;2.00;;
70078;SDS011;57451;52.496;13.456;2023-09-19T01:00:37;5.47;;;1.98;;
70078;SDS011;57451;52.496;13.456;2023-09-19T01:03:05;5.50;;;1.80;;
70078;SDS011;57451;52.496;13.456;2023-09-19T01:05:34;4.47;;;1.90;;
70078;SDS011;57451;52.496;13.456;2023-09-19T01:08:02;6.18;;;1.90;;
70078;SDS011;57451;52.496;13.456;2023-09-19T01:10:31;4.57;;;2.10;;
70078;SDS011;57451;52.496;13.456;2023-09-19T01:13:03;4.38;;;1.80;;
70078;SDS011;57451;52.496;13.456;2023-09-19T01:15:44;7.43;;;2.10;;
70078;SDS011;57451;52.496;13.456;2023-09-19T01:18:21;5.17;;;1.90;;
70078;SDS011;57451;52.496;13.456;2023-09-19T01:21:00;5.32;;;2.00;;
70078;SDS011;57451;52.496;13.456;2023-09-19T01:23:39;5.22;;;2.10;;
70078;SDS011;57451;52.496;13.456;2023-09-19T01:26:25;4.00;;;1.80;;
70078;SDS011;57451;52.496;13.456;2023-09-19T01:32:03;6.03;;;2.20;;
70078;SDS011;57451;52.496;13.456;2023-09-19T01:34:44;5.40;;;2.00;;
70078;SDS011;57451;52.496;13.456;2023-09-19T01:37:15;7.20;;;2.17;;
70078;SDS011;57451;52.496;13.456;2023-09-19T01:39:47;7.03;;;2.10;;
70078;SDS011;57451;52.496;13.456;2023-09-19T01:42:23;5.60;;;2.22;;
70078;SDS011;57451;52.496;13.456;2023-09-19T01:44:59;4.47;;;1.83;;
70078;SDS011;57451;52.496;13.456;2023-09-19T01:47:35;4.35;;;1.83;;
70078;SDS011;57451;52.496;13.456;2023-09-19T01:50:11;5.90;;;2.38;;
70078;SDS011;57451;52.496;13.456;2023-09-19T01:52:48;4.78;;;1.80;;
70078;SDS011;57451;52.496;13.456;2023-09-19T01:55:20;5.75;;;2.45;;
70078;SDS011;57451;52.496;13.456;2023-09-19T01:57:51;5.10;;;2.20;;
70078;SDS011;57451;52.496;13.456;2023-09-19T02:00:27;4.13;;;1.70;;
70078;SDS011;57451;52.496;13.456;2023-09-19T02:03:00;5.57;;;2.05;;
70078;SDS011;57451;52.496;13.456;2023-09-19T02:05:29;9.63;;;2.28;;
70078;SDS011;57451;52.496;13.456;2023-09-19T02:07:57;5.90;;;2.20;;
70078;SDS011;57451;52.496;13.456;2023-09-19T02:10:25;5.80;;;2.03;;
70078;SDS011;57451;52.496;13.456;2023-09-19T02:12:53;5.15;;;2.03;;
70078;SDS011;57451;52.496;13.456;2023-09-19T02:15:20;6.30;;;1.95;;
70078;SDS011;57451;52.496;13.456;2023-09-19T02:17:49;7.45;;;2.10;;
70078;SDS011;57451;52.496;13.456;2023-09-19T02:20:17;5.53;;;2.17;;
70078;SDS011;57451;52.496;13.456;2023-09-19T02:22:47;6.17;;;2.17;;
70078;SDS011;57451;52.496;13.456;2023-09-19T02:25:16;5.22;;;1.95;;
70078;SDS011;57451;52.496;13.456;2023-09-19T02:27:44;7.10;;;2.22;;
70078;SDS011;57451;52.496;13.456;2023-09-19T02:30:13;4.97;;;2.22;;
70078;SDS011;57451;52.496;13.456;2023-09-19T02:32:42;4.70;;;2.00;;
70078;SDS011;57451;52.496;13.456;2023-09-19T02:35:10;5.63;;;2.40;;
70078;SDS011;57451;52.496;13.456;2023-09-19T02:37:39;4.53;;;1.95;;
70078;SDS011;57451;52.496;13.456;2023-09-19T02:40:07;4.47;;;2.10;;
70078;SDS011;57451;52.496;13.456;2023-09-19T02:42:48;7.47;;;2.22;;
70078;SDS011;57451;52.496;13.456;2023-09-19T02:45:19;6.75;;;2.17;;
70078;SDS011;57451;52.496;13.456;2023-09-19T02:47:47;4.70;;;2.10;;
70078;SDS011;57451;52.496;13.456;2023-09-19T02:50:15;4.03;;;1.80;;
70078;SDS011;57451;52.496;13.456;2023-09-19T02:52:45;4.70;;;1.88;;
70078;SDS011;57451;52.496;13.456;2023-09-19T02:55:16;4.88;;;1.88;;
70078;SDS011;57451;52.496;13.456;2023-09-19T02:57:47;8.25;;;2.25;;
70078;SDS011;57451;52.496;13.456;2023-09-19T03:00:15;4.80;;;1.97;;
70078;SDS011;57451;52.496;13.456;2023-09-19T03:02:43;5.30;;;1.77;;
70078;SDS011;57451;52.496;13.456;2023-09-19T03:05:13;5.35;;;2.10;;
70078;SDS011;57451;52.496;13.456;2023-09-19T03:07:40;5.68;;;2.10;;
70078;SDS011;57451;52.496;13.456;2023-09-19T03:10:11;5.38;;;2.08;;
70078;SDS011;57451;52.496;13.456;2023-09-19T03:12:38;4.90;;;1.90;;
70078;SDS011;57451;52.496;13.456;2023-09-19T03:15:07;5.30;;;1.80;;
70078;SDS011;57451;52.496;13.456;2023-09-19T03:17:36;5.03;;;1.92;;
70078;SDS011;57451;52.496;13.456;2023-09-19T03:20:04;6.28;;;2.00;;
70078;SDS011;57451;52.496;13.456;2023-09-19T03:22:35;4.88;;;1.88;;
70078;SDS011;57451;52.496;13.456;2023-09-19T03:25:03;4.83;;;1.77;;
70078;SDS011;57451;52.496;13.456;2023-09-19T03:27:37;5.60;;;1.80;;
70078;SDS011;57451;52.496;13.456;2023-09-19T03:30:06;5.32;;;1.80;;
70078;SDS011;57451;52.496;13.456;2023-09-19T03:32:35;4.57;;;1.60;;
70078;SDS011;57451;52.496;13.456;2023-09-19T03:35:04;4.82;;;1.58;;
70078;SDS011;57451;52.496;13.456;2023-09-19T03:37:32;3.63;;;1.77;;
70078;SDS011;57451;52.496;13.456;2023-09-19T03:40:01;4.57;;;1.90;;
70078;SDS011;57451;52.496;13.456;2023-09-19T03:42:32;3.72;;;1.50;;
70078;SDS011;57451;52.496;13.456;2023-09-19T03:45:01;3.92;;;1.73;;
70078;SDS011;57451;52.496;13.456;2023-09-19T03:47:32;6.47;;;1.80;;
70078;SDS011;57451;52.496;13.456;2023-09-19T03:50:02;5.33;;;1.70;;
70078;SDS011;57451;52.496;13.456;2023-09-19T03:52:30;4.57;;;1.65;;
70078;SDS011;57451;52.496;13.456;2023-09-19T03:54:57;4.50;;;1.80;;
70078;SDS011;57451;52.496;13.456;2023-09-19T03:57:25;4.72;;;1.60;;
70078;SDS011;57451;52.496;13.456;2023-09-19T03:59:52;4.57;;;1.50;;
70078;SDS011;57451;52.496;13.456;2023-09-19T04:02:21;4.17;;;2.00;;
70078;SDS011;57451;52.496;13.456;2023-09-19T04:04:50;3.63;;;1.60;;
70078;SDS011;57451;52.496;13.456;2023-09-19T04:07:18;6.30;;;1.77;;
70078;SDS011;57451;52.496;13.456;2023-09-19T04:09:49;6.45;;;2.00;;
70078;SDS011;57451;52.496;13.456;2023-09-19T04:12:17;5.60;;;2.38;;
70078;SDS011;57451;52.496;13.456;2023-09-19T04:14:44;5.20;;;1.60;;
70078;SDS011;57451;52.496;13.456;2023-09-19T04:17:13;3.65;;;1.23;;
70078;SDS011;57451;52.496;13.456;2023-09-19T04:19:42;4.50;;;1.80;;
70078;SDS011;57451;52.496;13.456;2023-09-19T04:22:10;6.80;;;1.77;;
70078;SDS011;57451;52.496;13.456;2023-09-19T04:24:38;5.38;;;1.60;;
70078;SDS011;57451;52.496;13.456;2023-09-19T04:27:05;4.00;;;1.60;;
70078;SDS011;57451;52.496;13.456;2023-09-19T04:29:33;3.90;;;1.52;;
70078;SDS011;57451;52.496;13.456;2023-09-19T04:32:01;4.75;;;1.80;;
70078;SDS011;57451;52.496;13.456;2023-09-19T04:34:32;3.67;;;1.48;;
70078;SDS011;57451;52.496;13.456;2023-09-19T04:37:02;3.65;;;1.40;;
70078;SDS011;57451;52.496;13.456;2023-09-19T04:39:30;6.50;;;1.40;;
70078;SDS011;57451;52.496;13.456;2023-09-19T04:41:57;3.83;;;1.70;;
70078;SDS011;57451;52.496;13.456;2023-09-19T04:44:26;5.00;;;1.77;;
70078;SDS011;57451;52.496;13.456;2023-09-19T04:46:54;4.47;;;1.77;;
70078;SDS011;57451;52.496;13.456;2023-09-19T04:49:22;4.47;;;1.73;;
70078;SDS011;57451;52.496;13.456;2023-09-19T04:51:49;3.63;;;1.53;;
70078;SDS011;57451;52.496;13.456;2023-09-19T04:54:18;4.32;;;1.60;;
70078;SDS011;57451;52.496;13.456;2023-09-19T04:56:45;6.65;;;2.00;;
70078;SDS011;57451;52.496;13.456;2023-09-19T04:59:12;5.80;;;1.52;;
70078;SDS011;57451;52.496;13.456;2023-09-19T05:01:41;5.50;;;1.60;;
70078;SDS011;57451;52.496;13.456;2023-09-19T05:04:09;4.07;;;1.53;;
70078;SDS011;57451;52.496;13.456;2023-09-19T05:06:36;4.70;;;1.75;;
70078;SDS011;57451;52.496;13.456;2023-09-19T05:09:03;4.35;;;1.55;;
70078;SDS011;57451;52.496;13.456;2023-09-19T05:11:33;4.88;;;1.77;;
70078;SDS011;57451;52.496;13.456;2023-09-19T05:14:01;4.38;;;1.45;;
70078;SDS011;57451;52.496;13.456;2023-09-19T05:16:30;4.47;;;1.73;;
70078;SDS011;57451;52.496;13.456;2023-09-19T05:18:58;3.47;;;1.50;;
70078;SDS011;57451;52.496;13.456;2023-09-19T05:21:26;5.57;;;1.50;;
70078;SDS011;57451;52.496;13.456;2023-09-19T05:23:57;3.58;;;1.50;;
70078;SDS011;57451;52.496;13.456;2023-09-19T05:26:25;5.88;;;1.70;;
70078;SDS011;57451;52.496;13.456;2023-09-19T05:28:53;5.53;;;1.70;;
70078;SDS011;57451;52.496;13.456;2023-09-19T05:31:21;4.60;;;1.75;;
70078;SDS011;57451;52.496;13.456;2023-09-19T05:33:50;4.25;;;1.30;;
70078;SDS011;57451;52.496;13.456;2023-09-19T05:36:17;4.60;;;1.40;;
70078;SDS011;57451;52.496;13.456;2023-09-19T05:38:45;4.78;;;1.70;;
70078;SDS011;57451;52.496;13.456;2023-09-19T05:41:15;4.87;;;1.67;;
70078;SDS011;57451;52.496;13.456;2023-09-19T05:43:44;4.13;;;1.67;;
70078;SDS011;57451;52.496;13.456;2023-09-19T05:46:13;5.20;;;1.73;;
70078;SDS011;57451;52.496;13.456;2023-09-19T05:48:42;5.15;;;1.75;;
70078;SDS011;57451;52.496;13.456;2023-09-19T05:51:11;4.60;;;1.70;;
70078;SDS011;57451;52.496;13.456;2023-09-19T05:53:38;4.90;;;1.57;;
70078;SDS011;57451;52.496;13.456;2023-09-19T05:56:06;4.78;;;2.00;;
70078;SDS011;57451;52.496;13.456;2023-09-19T05:58:33;4.32;;;1.63;;
70078;SDS011;57451;52.496;13.456;2023-09-19T06:01:01;5.53;;;1.83;;
70078;SDS011;57451;52.496;13.456;2023-09-19T06:03:29;5.72;;;1.70;;
70078;SDS011;57451;52.496;13.456;2023-09-19T06:05:57;4.57;;;1.80;;
70078;SDS011;57451;52.496;13.456;2023-09-19T06:08:26;5.15;;;1.90;;
70078;SDS011;57451;52.496;13.456;2023-09-19T06:10:53;6.78;;;1.98;;
70078;SDS011;57451;52.496;13.456;2023-09-19T06:13:20;6.75;;;2.10;;
70078;SDS011;57451;52.496;13.456;2023-09-19T06:15:48;5.50;;;1.83;;
70078;SDS011;57451;52.496;13.456;2023-09-19T06:18:16;5.63;;;1.87;;
70078;SDS011;57451;52.496;13.456;2023-09-19T06:20:48;6.13;;;1.73;;
70078;SDS011;57451;52.496;13.456;2023-09-19T06:23:17;5.57;;;2.03;;
70078;SDS011;57451;52.496;13.456;2023-09-19T06:25:47;6.35;;;2.00;;
70078;SDS011;57451;52.496;13.456;2023-09-19T06:28:15;5.22;;;1.88;;
70078;SDS011;57451;52.496;13.456;2023-09-19T06:30:45;5.13;;;1.87;;
70078;SDS011;57451;52.496;13.456;2023-09-19T06:33:12;6.35;;;1.90;;
70078;SDS011;57451;52.496;13.456;2023-09-19T06:35:44;5.93;;;2.05;;
70078;SDS011;57451;52.496;13.456;2023-09-19T06:38:12;6.00;;;2.15;;
70078;SDS011;57451;52.496;13.456;2023-09-19T06:40:42;4.22;;;1.90;;
70078;SDS011;57451;52.496;13.456;2023-09-19T06:43:10;4.50;;;1.73;;
70078;SDS011;57451;52.496;13.456;2023-09-19T06:45:38;5.40;;;1.73;;
70078;SDS011;57451;52.496;13.456;2023-09-19T06:48:05;5.75;;;2.00;;
70078;SDS011;57451;52.496;13.456;2023-09-19T06:50:33;8.60;;;2.10;;
70078;SDS011;57451;52.496;13.456;2023-09-19T06:53:02;6.35;;;2.13;;
70078;SDS011;57451;52.496;13.456;2023-09-19T06:55:31;5.23;;;1.83;;
70078;SDS011;57451;52.496;13.456;2023-09-19T06:58:00;4.57;;;1.85;;
70078;SDS011;57451;52.496;13.456;2023-09-19T07:00:31;5.13;;;2.25;;
70078;SDS011;57451;52.496;13.456;2023-09-19T07:03:06;5.05;;;1.98;;
70078;SDS011;57451;52.496;13.456;2023-09-19T07:05:40;5.15;;;1.92;;
70078;SDS011;57451;52.496;13.456;2023-09-19T07:08:09;7.13;;;2.27;;
70078;SDS011;57451;52.496;13.456;2023-09-19T07:10:41;7.03;;;1.90;;
70078;SDS011;57451;52.496;13.456;2023-09-19T07:13:19;4.68;;;1.90;;
70078;SDS011;57451;52.496;13.456;2023-09-19T07:15:47;6.28;;;2.15;;
70078;SDS011;57451;52.496;13.456;2023-09-19T07:18:15;5.88;;;2.17;;
70078;SDS011;57451;52.496;13.456;2023-09-19T07:20:44;4.27;;;1.93;;
70078;SDS011;57451;52.496;13.456;2023-09-19T07:23:18;8.63;;;2.15;;
70078;SDS011;57451;52.496;13.456;2023-09-19T07:25:49;4.70;;;2.10;;
70078;SDS011;57451;52.496;13.456;2023-09-19T07:28:17;5.80;;;2.13;;
70078;SDS011;57451;52.496;13.456;2023-09-19T07:30:45;4.47;;;2.05;;
70078;SDS011;57451;52.496;13.456;2023-09-19T07:33:12;9.13;;;2.50;;
70078;SDS011;57451;52.496;13.456;2023-09-19T07:35:44;5.10;;;2.25;;
70078;SDS011;57451;52.496;13.456;2023-09-19T07:38:12;4.28;;;2.13;;
70078;SDS011;57451;52.496;13.456;2023-09-19T07:40:40;8.35;;;2.47;;
70078;SDS011;57451;52.496;13.456;2023-09-19T07:43:09;6.15;;;2.17;;
70078;SDS011;57451;52.496;13.456;2023-09-19T07:45:36;6.33;;;2.37;;
70078;SDS011;57451;52.496;13.456;2023-09-19T07:48:04;7.63;;;2.30;;
70078;SDS011;57451;52.496;13.456;2023-09-19T07:50:33;5.50;;;2.33;;
70078;SDS011;57451;52.496;13.456;2023-09-19T07:53:03;6.80;;;2.50;;
70078;SDS011;57451;52.496;13.456;2023-09-19T07:55:32;6.78;;;2.85;;
70078;SDS011;57451;52.496;13.456;2023-09-19T07:58:01;7.77;;;2.73;;
70078;SDS011;57451;52.496;13.456;2023-09-19T08:00:32;7.20;;;2.78;;
70078;SDS011;57451;52.496;13.456;2023-09-19T08:03:01;6.20;;;2.72;;
70078;SDS011;57451;52.496;13.456;2023-09-19T08:05:42;5.32;;;2.63;;
70078;SDS011;57451;52.496;13.456;2023-09-19T08:08:10;5.85;;;2.63;;
70078;SDS011;57451;52.496;13.456;2023-09-19T08:10:41;8.90;;;2.90;;
70078;SDS011;57451;52.496;13.456;2023-09-19T08:13:12;5.18;;;2.20;;
70078;SDS011;57451;52.496;13.456;2023-09-19T08:15:43;6.07;;;2.45;;
70078;SDS011;57451;52.496;13.456;2023-09-19T08:18:12;6.93;;;2.45;;
70078;SDS011;57451;52.496;13.456;2023-09-19T08:20:40;6.20;;;2.28;;
70078;SDS011;57451;52.496;13.456;2023-09-19T08:23:09;5.87;;;2.17;;
70078;SDS011;57451;52.496;13.456;2023-09-19T08:25:36;6.65;;;2.67;;
70078;SDS011;57451;52.496;13.456;2023-09-19T08:28:05;6.93;;;2.50;;
70078;SDS011;57451;52.496;13.456;2023-09-19T08:30:35;4.80;;;1.98;;
70078;SDS011;57451;52.496;13.456;2023-09-19T08:33:08;6.25;;;2.35;;
70078;SDS011;57451;52.496;13.456;2023-09-19T08:35:36;6.20;;;2.37;;
70078;SDS011;57451;52.496;13.456;2023-09-19T08:38:04;6.25;;;2.60;;
70078;SDS011;57451;52.496;13.456;2023-09-19T08:40:33;5.50;;;2.70;;
70078;SDS011;57451;52.496;13.456;2023-09-19T08:43:06;7.88;;;2.60;;
70078;SDS011;57451;52.496;13.456;2023-09-19T08:45:34;7.55;;;2.83;;
70078;SDS011;57451;52.496;13.456;2023-09-19T08:48:13;5.83;;;2.60;;
70078;SDS011;57451;52.496;13.456;2023-09-19T08:50:49;5.72;;;2.70;;
70078;SDS011;57451;52.496;13.456;2023-09-19T08:53:26;6.93;;;2.80;;
70078;SDS011;57451;52.496;13.456;2023-09-19T08:55:59;7.18;;;3.08;;
70078;SDS011;57451;52.496;13.456;2023-09-19T08:58:31;6.60;;;2.78;;
70078;SDS011;57451;52.496;13.456;2023-09-19T09:01:02;6.27;;;2.50;;
70078;SDS011;57451;52.496;13.456;2023-09-19T09:03:33;7.72;;;2.60;;
70078;SDS011;57451;52.496;13.456;2023-09-19T09:06:01;6.03;;;2.40;;
70078;SDS011;57451;52.496;13.456;2023-09-19T09:08:30;6.50;;;2.53;;
70078;SDS011;57451;52.496;13.456;2023-09-19T09:10:58;6.22;;;2.47;;
70078;SDS011;57451;52.496;13.456;2023-09-19T09:13:26;6.67;;;2.43;;
70078;SDS011;57451;52.496;13.456;2023-09-19T09:15:54;5.95;;;2.85;;
70078;SDS011;57451;52.496;13.456;2023-09-19T09:18:21;6.00;;;2.38;;
70078;SDS011;57451;52.496;13.456;2023-09-19T09:20:50;5.43;;;2.30;;
70078;SDS011;57451;52.496;13.456;2023-09-19T09:23:18;8.20;;;2.58;;
70078;SDS011;57451;52.496;13.456;2023-09-19T09:25:52;7.40;;;2.77;;
70078;SDS011;57451;52.496;13.456;2023-09-19T09:28:24;10.65;;;2.60;;
70078;SDS011;57451;52.496;13.456;2023-09-19T09:30:52;6.53;;;2.50;;
70078;SDS011;57451;52.496;13.456;2023-09-19T09:33:20;6.38;;;2.50;;
70078;SDS011;57451;52.496;13.456;2023-09-19T09:35:48;7.40;;;2.60;;
70078;SDS011;57451;52.496;13.456;2023-09-19T09:38:19;6.20;;;2.50;;
70078;SDS011;57451;52.496;13.456;2023-09-19T09:40:48;9.02;;;3.05;;
70078;SDS011;57451;52.496;13.456;2023-09-19T09:43:26;9.52;;;2.78;;
70078;SDS011;57451;52.496;13.456;2023-09-19T09:48:48;8.48;;;2.70;;
70078;SDS011;57451;52.496;13.456;2023-09-19T09:51:44;8.47;;;2.80;;
70078;SDS011;57451;52.496;13.456;2023-09-19T09:54:17;8.10;;;2.42;;
70078;SDS011;57451;52.496;13.456;2023-09-19T09:56:52;7.68;;;2.70;;
70078;SDS011;57451;52.496;13.456;2023-09-19T10:02:26;6.38;;;2.78;;
70078;SDS011;57451;52.496;13.456;2023-09-19T10:05:10;5.90;;;2.40;;
70078;SDS011;57451;52.496;13.456;2023-09-19T10:07:56;5.40;;;2.70;;
70078;SDS011;57451;52.496;13.456;2023-09-19T10:10:38;7.38;;;2.67;;
70078;SDS011;57451;52.496;13.456;2023-09-19T10:13:10;7.15;;;2.80;;
70078;SDS011;57451;52.496;13.456;2023-09-19T10:15:48;7.13;;;2.88;;
70078;SDS011;57451;52.496;13.456;2023-09-19T10:18:22;6.03;;;2.50;;
70078;SDS011;57451;52.496;13.456;2023-09-19T10:20:51;7.13;;;2.90;;
70078;SDS011;57451;52.496;13.456;2023-09-19T10:23:24;8.05;;;2.70;;
70078;SDS011;57451;52.496;13.456;2023-09-19T10:25:56;7.38;;;2.50;;
70078;SDS011;57451;52.496;13.456;2023-09-19T10:28:25;7.35;;;2.88;;
70078;SDS011;57451;52.496;13.456;2023-09-19T10:30:55;6.13;;;2.70;;
70078;SDS011;57451;52.496;13.456;2023-09-19T10:33:24;6.97;;;2.67;;
70078;SDS011;57451;52.496;13.456;2023-09-19T10:35:53;5.85;;;2.40;;
70078;SDS011;57451;52.496;13.456;2023-09-19T10:38:25;6.65;;;2.33;;
70078;SDS011;57451;52.496;13.456;2023-09-19T10:40:55;8.20;;;2.70;;
70078;SDS011;57451;52.496;13.456;2023-09-19T10:43:29;8.57;;;2.70;;
70078;SDS011;57451;52.496;13.456;2023-09-19T10:46:02;7.03;;;2.80;;
70078;SDS011;57451;52.496;13.456;2023-09-19T10:48:34;6.15;;;2.50;;
70078;SDS011;57451;52.496;13.456;2023-09-19T10:51:03;6.78;;;2.97;;
70078;SDS011;57451;52.496;13.456;2023-09-19T10:53:40;6.68;;;2.50;;
70078;SDS011;57451;52.496;13.456;2023-09-19T10:56:15;9.33;;;2.70;;
70078;SDS011;57451;52.496;13.456;2023-09-19T10:58:46;6.63;;;2.50;;
70078;SDS011;57451;52.496;13.456;2023-09-19T11:01:13;6.88;;;2.60;;
70078;SDS011;57451;52.496;13.456;2023-09-19T11:03:42;5.78;;;2.72;;
70078;SDS011;57451;52.496;13.456;2023-09-19T11:06:13;7.13;;;2.65;;
70078;SDS011;57451;52.496;13.456;2023-09-19T11:08:54;6.28;;;2.70;;
70078;SDS011;57451;52.496;13.456;2023-09-19T11:11:38;7.50;;;2.90;;
70078;SDS011;57451;52.496;13.456;2023-09-19T11:14:13;7.00;;;2.50;;
70078;SDS011;57451;52.496;13.456;2023-09-19T11:25:46;7.60;;;2.42;;
70078;SDS011;57451;52.496;13.456;2023-09-19T11:28:29;7.20;;;2.55;;
70078;SDS011;57451;52.496;13.456;2023-09-19T11:30:58;5.95;;;2.30;;
70078;SDS011;57451;52.496;13.456;2023-09-19T11:33:26;4.80;;;2.30;;
70078;SDS011;57451;52.496;13.456;2023-09-19T11:36:01;6.83;;;2.30;;
70078;SDS011;57451;52.496;13.456;2023-09-19T11:41:38;7.05;;;2.13;;
70078;SDS011;57451;52.496;13.456;2023-09-19T11:47:01;8.77;;;2.92;;
70078;SDS011;57451;52.496;13.456;2023-09-19T11:49:30;6.17;;;2.27;;
70078;SDS011;57451;52.496;13.456;2023-09-19T11:52:00;6.65;;;2.22;;
70078;SDS011;57451;52.496;13.456;2023-09-19T11:54:32;6.45;;;2.08;;
70078;SDS011;57451;52.496;13.456;2023-09-19T11:57:01;6.35;;;2.28;;
70078;SDS011;57451;52.496;13.456;2023-09-19T11:59:30;5.13;;;1.92;;
70078;SDS011;57451;52.496;13.456;2023-09-19T12:02:06;6.37;;;2.17;;
70078;SDS011;57451;52.496;13.456;2023-09-19T12:04:38;7.15;;;2.28;;
70078;SDS011;57451;52.496;13.456;2023-09-19T12:07:07;7.63;;;2.05;;
70078;SDS011;57451;52.496;13.456;2023-09-19T12:09:43;6.10;;;2.00;;
70078;SDS011;57451;52.496;13.456;2023-09-19T12:12:20;11.95;;;2.33;;
70078;SDS011;57451;52.496;13.456;2023-09-19T12:14:54;6.70;;;2.23;;
70078;SDS011;57451;52.496;13.456;2023-09-19T12:17:34;6.80;;;2.00;;
70078;SDS011;57451;52.496;13.456;2023-09-19T12:20:03;4.90;;;1.90;;
70078;SDS011;57451;52.496;13.456;2023-09-19T12:22:41;5.95;;;2.15;;
70078;SDS011;57451;52.496;13.456;2023-09-19T12:25:13;5.47;;;1.70;;
70078;SDS011;57451;52.496;13.456;2023-09-19T12:27:45;4.07;;;1.90;;
70078;SDS011;57451;52.496;13.456;2023-09-19T12:30:14;6.63;;;2.10;;
70078;SDS011;57451;52.496;13.456;2023-09-19T12:32:53;5.57;;;2.30;;
70078;SDS011;57451;52.496;13.456;2023-09-19T12:35:29;7.63;;;2.13;;
70078;SDS011;57451;52.496;13.456;2023-09-19T12:38:03;4.82;;;1.98;;
70078;SDS011;57451;52.496;13.456;2023-09-19T12:40:31;6.10;;;2.20;;
70078;SDS011;57451;52.496;13.456;2023-09-19T12:43:04;5.93;;;2.10;;
70078;SDS011;57451;52.496;13.456;2023-09-19T12:45:32;5.43;;;1.70;;
70078;SDS011;57451;52.496;13.456;2023-09-19T12:48:18;4.95;;;1.88;;
70078;SDS011;57451;52.496;13.456;2023-09-19T12:51:04;6.00;;;2.22;;
70078;SDS011;57451;52.496;13.456;2023-09-19T12:53:34;6.37;;;1.90;;
70078;SDS011;57451;52.496;13.456;2023-09-19T12:56:07;6.43;;;1.95;;
70078;SDS011;57451;52.496;13.456;2023-09-19T12:58:49;5.43;;;1.88;;
70078;SDS011;57451;52.496;13.456;2023-09-19T13:01:17;6.03;;;2.00;;
70078;SDS011;57451;52.496;13.456;2023-09-19T13:03:44;6.85;;;1.90;;
70078;SDS011;57451;52.496;13.456;2023-09-19T13:06:13;6.73;;;1.70;;
70078;SDS011;57451;52.496;13.456;2023-09-19T13:08:43;6.30;;;2.17;;
70078;SDS011;57451;52.496;13.456;2023-09-19T13:11:16;5.82;;;1.90;;
70078;SDS011;57451;52.496;13.456;2023-09-19T13:13:46;8.80;;;2.10;;
70078;SDS011;57451;52.496;13.456;2023-09-19T13:16:22;5.53;;;1.90;;
70078;SDS011;57451;52.496;13.456;2023-09-19T13:18:51;5.27;;;1.90;;
70078;SDS011;57451;52.496;13.456;2023-09-19T13:21:27;7.93;;;1.65;;
70078;SDS011;57451;52.496;13.456;2023-09-19T13:24:20;6.20;;;1.60;;
70078;SDS011;57451;52.496;13.456;2023-09-19T13:26:48;6.03;;;1.80;;
70078;SDS011;57451;52.496;13.456;2023-09-19T13:29:15;3.80;;;1.48;;
70078;SDS011;57451;52.496;13.456;2023-09-19T13:31:48;4.90;;;1.70;;
70078;SDS011;57451;52.496;13.456;2023-09-19T13:34:16;5.63;;;1.63;;
70078;SDS011;57451;52.496;13.456;2023-09-19T13:36:44;4.10;;;1.40;;
70078;SDS011;57451;52.496;13.456;2023-09-19T13:39:15;4.57;;;1.55;;
70078;SDS011;57451;52.496;13.456;2023-09-19T13:41:43;7.72;;;1.73;;
70078;SDS011;57451;52.496;13.456;2023-09-19T13:44:11;5.73;;;1.70;;
70078;SDS011;57451;52.496;13.456;2023-09-19T13:46:40;4.88;;;1.65;;
70078;SDS011;57451;52.496;13.456;2023-09-19T13:49:14;6.20;;;1.70;;
70078;SDS011;57451;52.496;13.456;2023-09-19T13:51:43;6.28;;;1.65;;
70078;SDS011;57451;52.496;13.456;2023-09-19T13:54:11;6.03;;;1.80;;
70078;SDS011;57451;52.496;13.456;2023-09-19T13:56:39;4.87;;;1.73;;
70078;SDS011;57451;52.496;13.456;2023-09-19T13:59:06;4.13;;;1.50;;
70078;SDS011;57451;52.496;13.456;2023-09-19T14:01:34;5.93;;;1.75;;
70078;SDS011;57451;52.496;13.456;2023-09-19T14:04:01;4.72;;;1.60;;
70078;SDS011;57451;52.496;13.456;2023-09-19T14:06:32;6.03;;;1.90;;
70078;SDS011;57451;52.496;13.456;2023-09-19T14:09:00;5.43;;;1.90;;
70078;SDS011;57451;52.496;13.456;2023-09-19T14:11:28;8.05;;;2.10;;
70078;SDS011;57451;52.496;13.456;2023-09-19T14:13:58;5.53;;;2.00;;
70078;SDS011;57451;52.496;13.456;2023-09-19T14:16:25;6.30;;;1.80;;
70078;SDS011;57451;52.496;13.456;2023-09-19T14:18:58;4.97;;;1.92;;
70078;SDS011;57451;52.496;13.456;2023-09-19T14:21:26;6.47;;;1.87;;
70078;SDS011;57451;52.496;13.456;2023-09-19T14:23:55;4.43;;;1.83;;
70078;SDS011;57451;52.496;13.456;2023-09-19T14:26:22;4.63;;;1.88;;
70078;SDS011;57451;52.496;13.456;2023-09-19T14:28:50;8.13;;;1.92;;
70078;SDS011;57451;52.496;13.456;2023-09-19T14:31:18;5.38;;;1.70;;
70078;SDS011;57451;52.496;13.456;2023-09-19T14:33:45;6.60;;;1.80;;
70078;SDS011;57451;52.496;13.456;2023-09-19T14:36:19;5.22;;;1.77;;
70078;SDS011;57451;52.496;13.456;2023-09-19T14:38:52;6.07;;;1.63;;
70078;SDS011;57451;52.496;13.456;2023-09-19T14:41:24;4.28;;;1.63;;
70078;SDS011;57451;52.496;13.456;2023-09-19T14:43:52;6.05;;;2.20;;
70078;SDS011;57451;52.496;13.456;2023-09-19T14:46:20;7.40;;;1.90;;
70078;SDS011;57451;52.496;13.456;2023-09-19T14:48:47;6.15;;;2.25;;
70078;SDS011;57451;52.496;13.456;2023-09-19T14:51:15;6.28;;;2.22;;
70078;SDS011;57451;52.496;13.456;2023-09-19T14:53:45;6.53;;;2.33;;
70078;SDS011;57451;52.496;13.456;2023-09-19T14:56:15;6.25;;;2.00;;
70078;SDS011;57451;52.496;13.456;2023-09-19T14:58:45;4.87;;;1.87;;
70078;SDS011;57451;52.496;13.456;2023-09-19T15:01:14;5.18;;;1.83;;
70078;SDS011;57451;52.496;13.456;2023-09-19T15:03:41;4.90;;;1.88;;
70078;SDS011;57451;52.496;13.456;2023-09-19T15:06:10;4.95;;;1.73;;
70078;SDS011;57451;52.496;13.456;2023-09-19T15:08:41;6.55;;;2.10;;
70078;SDS011;57451;52.496;13.456;2023-09-19T15:11:16;5.87;;;2.30;;
70078;SDS011;57451;52.496;13.456;2023-09-19T15:13:45;6.10;;;1.98;;
70078;SDS011;57451;52.496;13.456;2023-09-19T15:16:13;8.48;;;1.85;;